Time;durP1;ratioP1;P1;durP2;ratioP2;P2;SDS_P1;SDS_P2;PMS_P1;PMS_P2;Temp;Humidity;BMP_temperature;BMP_pressure;BME280_temperature;BME280_humidity;BME280_pressure;Samples;Min_cycle;Max_cycle;Signal;HPM_P1;HPM_P2
2021/01/05 00:01:57;;;;;;;9.02;8.52;;;27.60;99.90;;;;;;5075496;28;20035;-68
2021/01/05 00:04:33;;;;;;;9.73;9.00;;;27.60;99.90;;;;;;5075700;28;20524;-68
2021/01/05 00:07:07;;;;;;;9.43;8.73;;;27.80;99.90;;;;;;5075316;28;20105;-68
2021/01/05 00:09:35;;;;;;;9.80;9.10;;;27.80;99.90;;;;;;5075429;28;20027;-69
2021/01/05 00:12:09;;;;;;;9.38;8.77;;;27.80;99.90;;;;;;5075638;28;20068;-70
2021/01/05 00:14:41;;;;;;;9.77;9.00;;;27.80;99.90;;;;;;5075224;28;20089;-68
2021/01/05 00:17:09;;;;;;;10.55;9.73;;;28.00;99.90;;;;;;5075548;28;20021;-68
2021/01/05 00:19:37;;;;;;;8.70;8.00;;;28.10;99.90;;;;;;5075114;28;20047;-68
2021/01/05 00:22:05;;;;;;;9.02;8.32;;;28.00;99.90;;;;;;5056727;28;20115;-68
2021/01/05 00:24:35;;;;;;;14.20;9.65;;;28.10;99.90;;;;;;5075061;28;20025;-68
2021/01/05 00:27:03;;;;;;;9.63;8.93;;;28.30;99.90;;;;;;5073877;28;20044;-69
2021/01/05 00:29:31;;;;;;;9.85;9.18;;;28.40;99.90;;;;;;5074929;28;20036;-68
2021/01/05 00:32:13;;;;;;;9.95;9.20;;;28.70;99.90;;;;;;5074911;28;20025;-69
2021/01/05 00:34:42;;;;;;;10.07;9.27;;;29.00;99.90;;;;;;5074902;28;20073;-67
2021/01/05 00:37:10;;;;;;;9.97;9.47;;;29.40;99.90;;;;;;5074942;28;20029;-68
2021/01/05 00:39:38;;;;;;;9.05;8.48;;;29.90;99.90;;;;;;5074814;28;20070;-68
2021/01/05 00:42:06;;;;;;;9.90;9.20;;;29.70;99.90;;;;;;5074823;28;20029;-68
2021/01/05 00:44:34;;;;;;;9.85;9.00;;;29.10;99.90;;;;;;5074827;28;20434;-69
2021/01/05 00:47:03;;;;;;;10.57;9.77;;;28.50;99.90;;;;;;5074555;28;20036;-69
2021/01/05 00:49:31;;;;;;;11.32;10.52;;;27.90;99.90;;;;;;5074508;28;20111;-68
2021/01/05 00:51:59;;;;;;;11.63;10.85;;;27.40;99.90;;;;;;5072716;28;20063;-67
2021/01/05 00:54:27;;;;;;;11.35;10.55;;;27.70;99.90;;;;;;5074618;28;20029;-65
2021/01/05 00:57:07;;;;;;;10.70;9.90;;;28.10;99.90;;;;;;5074772;28;20493;-66
2021/01/05 00:59:43;;;;;;;10.05;9.15;;;28.10;99.90;;;;;;5074230;28;20076;-66
2021/01/05 01:02:14;;;;;;;10.13;9.35;;;28.30;99.90;;;;;;5074331;28;20532;-67
2021/01/05 01:04:42;;;;;;;9.15;8.55;;;28.40;99.90;;;;;;5074614;28;20031;-68
2021/01/05 01:07:10;;;;;;;8.63;8.10;;;28.90;99.90;;;;;;5074148;28;20161;-67
2021/01/05 01:09:38;;;;;;;9.05;8.65;;;29.20;99.90;;;;;;5074069;28;20111;-66
2021/01/05 01:12:19;;;;;;;9.43;8.80;;;29.10;99.90;;;;;;5074079;28;20024;-66
2021/01/05 01:14:49;;;;;;;10.02;9.18;;;29.30;99.90;;;;;;5074172;28;20038;-66
2021/01/05 01:17:18;;;;;;;11.00;10.20;;;29.70;99.90;;;;;;5074371;28;20037;-67
2021/01/05 01:19:45;;;;;;;11.75;10.60;;;29.80;99.90;;;;;;5073865;28;20102;-66
2021/01/05 01:22:16;;;;;;;11.23;10.35;;;29.40;99.90;;;;;;5073198;28;20359;-65
2021/01/05 01:24:44;;;;;;;12.23;11.32;;;29.30;99.90;;;;;;5074135;28;20028;-66
2021/01/05 01:27:11;;;;;;;11.68;10.60;;;29.10;99.90;;;;;;5073724;28;20025;-66
2021/01/05 01:29:39;;;;;;;11.50;10.70;;;28.90;99.90;;;;;;5073910;28;20043;-69
2021/01/05 01:32:07;;;;;;;11.50;10.70;;;29.00;99.90;;;;;;5073789;28;20032;-65
2021/01/05 01:34:35;;;;;;;12.02;11.10;;;29.10;99.90;;;;;;5073501;28;20111;-66
2021/01/05 01:37:09;;;;;;;11.45;10.55;;;29.20;99.90;;;;;;5073848;28;20028;-66
2021/01/05 01:39:39;;;;;;;14.63;11.48;;;29.30;99.90;;;;;;5074019;28;20352;-63
2021/01/05 01:42:07;;;;;;;;;;;29.40;99.90;;;;;;5074003;28;20078;-66
2021/01/05 01:44:40;;;;;;;11.88;11.07;;;29.30;99.90;;;;;;5073667;28;19940;-68
2021/01/05 01:47:11;;;;;;;11.63;10.63;;;29.10;99.90;;;;;;5072293;28;20035;-68
2021/01/05 01:49:40;;;;;;;12.35;11.45;;;29.30;99.90;;;;;;5073521;28;20032;-69
2021/01/05 01:52:10;;;;;;;12.27;11.40;;;29.20;99.90;;;;;;5072089;28;20098;-67
2021/01/05 01:55:04;;;;;;;12.40;11.38;;;29.10;99.90;;;;;;5072011;28;20028;-67
2021/01/05 01:58:03;;;;;;;11.93;11.07;;;29.10;99.90;;;;;;5073590;28;20032;-67
2021/01/05 02:00:47;;;;;;;12.20;11.30;;;29.20;99.90;;;;;;5073123;28;20039;-67
2021/01/05 02:03:38;;;;;;;11.10;10.40;;;29.30;99.90;;;;;;5073511;28;20029;-67
2021/01/05 02:06:23;;;;;;;11.40;10.60;;;29.10;99.90;;;;;;5051065;28;20029;-67
2021/01/05 02:09:27;;;;;;;10.98;10.18;;;29.00;99.90;;;;;;5051320;28;20037;-66
2021/01/05 02:12:19;;;;;;;10.65;9.90;;;28.80;99.90;;;;;;5014450;28;20029;-68
2021/01/05 02:15:25;;;;;;;11.23;10.43;;;28.90;99.90;;;;;;4991712;28;20042;-66
2021/01/05 02:18:31;;;;;;;10.27;9.50;;;29.30;99.90;;;;;;4895810;29;20040;-66
2021/01/05 02:21:03;;;;;;;11.23;10.43;;;29.80;99.90;;;;;;4877061;29;20040;-66
2021/01/05 02:24:02;;;;;;;11.63;10.75;;;30.00;99.90;;;;;;4877287;29;20041;-66
2021/01/05 02:27:08;;;;;;;12.23;11.05;;;29.70;99.90;;;;;;4877044;29;20045;-64
2021/01/05 02:29:57;;;;;;;11.55;10.68;;;29.70;99.90;;;;;;4785869;30;20039;-64
2021/01/05 02:32:50;;;;;;;10.75;10.15;;;29.20;99.90;;;;;;4786266;29;20043;-64
2021/01/05 02:35:22;;;;;;;11.20;10.25;;;28.80;99.90;;;;;;4759641;30;20051;-64
2021/01/05 02:38:26;;;;;;;11.52;10.60;;;29.10;99.90;;;;;;4774397;30;20035;-64
2021/01/05 02:41:18;;;;;;;12.20;11.23;;;29.10;99.90;;;;;;4789366;30;20089;-65
2021/01/05 02:44:14;;;;;;;12.77;11.75;;;28.60;99.90;;;;;;4788809;30;20528;-62
2021/01/05 02:47:07;;;;;;;12.00;11.10;;;28.50;99.90;;;;;;4753620;30;20068;-67
2021/01/05 02:50:01;;;;;;;13.23;11.93;;;28.40;99.90;;;;;;4756133;30;20050;-64
2021/01/05 02:53:07;;;;;;;11.85;10.85;;;28.40;99.90;;;;;;4840893;29;20044;-65
2021/01/05 02:56:13;;;;;;;12.02;11.10;;;28.10;99.90;;;;;;4880515;29;20037;-67
2021/01/05 02:59:12;;;;;;;12.90;11.60;;;27.50;99.90;;;;;;4824781;29;20047;-63
2021/01/05 03:02:15;;;;;;;11.85;10.93;;;27.10;99.90;;;;;;4897011;29;20040;-64
2021/01/05 03:04:43;;;;;;;12.18;11.15;;;26.90;99.90;;;;;;4861885;29;20504;-65
2021/01/05 03:07:16;;;;;;;12.52;11.32;;;26.70;99.90;;;;;;4861706;29;20129;-66
2021/01/05 03:10:01;;;;;;;13.18;12.18;;;26.70;99.90;;;;;;4861842;29;20040;-66
2021/01/05 03:13:01;;;;;;;12.88;11.68;;;26.80;99.90;;;;;;4861776;29;20464;-66
2021/01/05 03:15:43;;;;;;;11.90;11.07;;;27.00;99.90;;;;;;4876516;29;20037;-65
2021/01/05 03:18:29;;;;;;;11.77;10.93;;;27.30;99.90;;;;;;4909317;29;20032;-64
2021/01/05 03:21:04;;;;;;;12.73;11.65;;;27.80;99.90;;;;;;4917790;29;20517;-65
2021/01/05 03:23:34;;;;;;;13.35;12.27;;;28.40;99.90;;;;;;4917765;29;20075;-64
2021/01/05 03:26:08;;;;;;;11.57;10.57;;;28.20;99.90;;;;;;4939113;28;20066;-63
2021/01/05 03:28:36;;;;;;;11.30;10.60;;;28.30;99.90;;;;;;4977526;28;20039;-66
2021/01/05 03:31:08;;;;;;;11.35;10.55;;;28.50;99.90;;;;;;5014166;28;20045;-64
2021/01/05 03:33:36;;;;;;;11.57;10.68;;;28.90;99.90;;;;;;5031808;28;20145;-70
2021/01/05 03:36:05;;;;;;;11.80;10.80;;;29.00;99.90;;;;;;5061552;28;20035;-64
2021/01/05 03:38:33;;;;;;;11.38;10.43;;;28.80;99.90;;;;;;5076154;28;20024;-66
2021/01/05 03:41:01;;;;;;;11.90;10.80;;;28.60;99.90;;;;;;5075521;28;20035;-66
2021/01/05 03:43:29;;;;;;;10.90;10.10;;;28.30;99.90;;;;;;5075973;28;20027;-64
2021/01/05 03:45:56;;;;;;;12.02;11.02;;;28.30;99.90;;;;;;5075121;28;20477;-66
2021/01/05 03:48:24;;;;;;;11.00;10.10;;;28.50;99.90;;;;;;5075575;28;20032;-65
2021/01/05 03:50:52;;;;;;;11.02;10.10;;;28.60;99.90;;;;;;5075464;28;20373;-62
2021/01/05 03:53:20;;;;;;;11.73;10.73;;;28.10;99.90;;;;;;5075746;28;20024;-62
2021/01/05 03:55:47;;;;;;;11.13;10.32;;;28.00;99.90;;;;;;5075526;28;20031;-61
2021/01/05 03:58:15;;;;;;;11.45;10.63;;;27.90;99.90;;;;;;5075698;28;20024;-61
2021/01/05 04:00:43;;;;;;;11.27;10.50;;;28.20;99.90;;;;;;5073700;28;20035;-61
2021/01/05 04:03:11;;;;;;;10.90;10.18;;;28.60;99.90;;;;;;5024023;28;20071;-61
2021/01/05 04:05:39;;;;;;;11.73;10.90;;;28.80;99.90;;;;;;5075582;28;20107;-64
2021/01/05 04:08:06;;;;;;;11.82;11.02;;;28.80;99.90;;;;;;5075609;28;20397;-63
2021/01/05 04:10:34;;;;;;;12.13;11.25;;;29.00;99.90;;;;;;5075354;28;20029;-63
2021/01/05 04:13:02;;;;;;;12.05;11.10;;;29.00;99.90;;;;;;5075281;28;20495;-60
2021/01/05 04:15:31;;;;;;;12.93;11.93;;;28.80;99.90;;;;;;5075050;28;20409;-61
2021/01/05 04:17:59;;;;;;;12.30;11.35;;;28.30;99.90;;;;;;5075305;28;20488;-63
2021/01/05 04:20:30;;;;;;;12.50;11.73;;;27.90;99.90;;;;;;5075274;28;20036;-62
2021/01/05 04:22:59;;;;;;;12.48;11.48;;;27.60;99.90;;;;;;5073235;28;20043;-61
2021/01/05 04:25:27;;;;;;;12.85;11.68;;;27.30;99.90;;;;;;5074938;28;20021;-65
2021/01/05 04:27:56;;;;;;;12.80;11.90;;;27.50;99.90;;;;;;5074926;28;20044;-63
2021/01/05 04:30:29;;;;;;;12.52;11.52;;;27.70;99.90;;;;;;5075006;28;20047;-63
2021/01/05 04:33:02;;;;;;;12.18;11.27;;;27.80;99.90;;;;;;5074993;28;20086;-62
2021/01/05 04:35:30;;;;;;;11.48;10.65;;;27.60;99.90;;;;;;5074909;28;20028;-62
2021/01/05 04:37:58;;;;;;;11.32;10.63;;;27.40;99.90;;;;;;5074662;28;20024;-64
2021/01/05 04:40:36;;;;;;;11.02;10.23;;;27.10;99.90;;;;;;5074703;28;20033;-64
2021/01/05 04:43:15;;;;;;;11.40;10.48;;;26.90;99.90;;;;;;5072812;28;20041;-61
2021/01/05 04:46:22;;;;;;;11.70;10.55;;;26.70;99.90;;;;;;5074416;28;20115;-61
2021/01/05 04:49:11;;;;;;;10.73;9.82;;;26.60;99.90;;;;;;5032243;28;20045;-61
2021/01/05 04:52:04;;;;;;;11.80;10.52;;;26.40;99.90;;;;;;5032558;28;20469;-60
2021/01/05 04:54:49;;;;;;;11.32;10.25;;;26.30;99.90;;;;;;4999347;28;20086;-61
2021/01/05 04:57:28;;;;;;;11.25;10.48;;;26.10;99.90;;;;;;5031410;28;20038;-61
2021/01/05 05:00:06;;;;;;;11.90;11.00;;;26.00;99.90;;;;;;5032135;28;20072;-61
2021/01/05 05:02:53;;;;;;;12.25;11.20;;;26.30;99.90;;;;;;5032386;28;20037;-61
2021/01/05 05:05:46;;;;;;;12.10;11.00;;;26.50;99.90;;;;;;5032182;28;20033;-61
2021/01/05 05:08:52;;;;;;;10.63;9.75;;;26.60;99.90;;;;;;4992899;28;20500;-61
2021/01/05 05:11:21;;;;;;;12.57;11.48;;;26.40;99.90;;;;;;4973186;28;20035;-61
2021/01/05 05:14:09;;;;;;;11.85;10.85;;;26.40;99.90;;;;;;4973085;28;20066;-61
2021/01/05 05:17:09;;;;;;;11.77;10.88;;;26.70;99.90;;;;;;4941241;28;20035;-62
2021/01/05 05:19:58;;;;;;;11.37;10.33;;;27.10;99.90;;;;;;4934617;29;20469;-62
2021/01/05 05:23:04;;;;;;;12.43;11.30;;;27.70;99.90;;;;;;4934502;29;20036;-62
2021/01/05 05:25:41;;;;;;;10.88;10.23;;;28.30;99.90;;;;;;4881654;29;20051;-61
2021/01/05 05:28:18;;;;;;;10.23;9.40;;;28.80;99.90;;;;;;4896662;29;20442;-62
2021/01/05 05:30:47;;;;;;;10.50;9.90;;;29.10;99.90;;;;;;4896590;29;20040;-62
2021/01/05 05:33:36;;;;;;;10.35;9.65;;;29.20;99.90;;;;;;4896597;29;20036;-62
2021/01/05 05:36:42;;;;;;;10.77;10.18;;;29.40;99.90;;;;;;4896705;29;20047;-62
2021/01/05 05:39:19;;;;;;;10.55;9.88;;;29.30;99.90;;;;;;4907738;29;20136;-62
2021/01/05 05:42:25;;;;;;;11.27;10.60;;;29.20;99.90;;;;;;4939699;29;20035;-61
2021/01/05 05:45:13;;;;;;;11.38;10.38;;;29.50;99.90;;;;;;4915283;29;20091;-62
2021/01/05 05:47:56;;;;;;;9.95;9.25;;;29.60;99.90;;;;;;4915234;29;20043;-62
2021/01/05 05:50:35;;;;;;;10.63;9.57;;;29.60;99.90;;;;;;4925056;29;20036;-63
2021/01/05 05:53:08;;;;;;;11.02;10.00;;;29.90;99.90;;;;;;4934086;29;20118;-62
2021/01/05 05:56:01;;;;;;;10.00;9.20;;;30.30;99.90;;;;;;4933403;28;20089;-64
2021/01/05 05:58:34;;;;;;;10.48;9.70;;;30.40;99.90;;;;;;4991724;28;20062;-61
2021/01/05 06:01:07;;;;;;;10.45;9.60;;;30.40;99.90;;;;;;4992086;28;20022;-63
2021/01/05 06:03:34;;;;;;;10.25;9.70;;;30.50;99.90;;;;;;4992110;28;20395;-62
2021/01/05 06:06:04;;;;;;;9.98;9.27;;;30.50;99.90;;;;;;4991883;28;20026;-62
2021/01/05 06:08:32;;;;;;;9.73;9.20;;;30.40;99.90;;;;;;4991553;28;20427;-62
2021/01/05 06:10:59;;;;;;;9.57;8.85;;;30.50;99.90;;;;;;5025134;28;20036;-63
2021/01/05 06:13:27;;;;;;;9.73;9.02;;;30.70;99.90;;;;;;5030996;28;20048;-61
2021/01/05 06:15:55;;;;;;;9.38;8.77;;;30.70;99.90;;;;;;5031103;28;20505;-62
2021/01/05 06:18:23;;;;;;;9.45;8.80;;;30.70;99.90;;;;;;4998127;28;20041;-59
2021/01/05 06:20:51;;;;;;;9.80;8.93;;;30.70;99.90;;;;;;4999266;28;20026;-59
2021/01/05 06:23:19;;;;;;;8.88;8.27;;;30.90;99.90;;;;;;5050847;28;20457;-62
2021/01/05 06:25:48;;;;;;;9.25;8.52;;;30.90;99.90;;;;;;5050915;28;20021;-61
2021/01/05 06:28:16;;;;;;;9.80;9.20;;;30.90;99.90;;;;;;5052134;28;20060;-61
2021/01/05 06:30:44;;;;;;;9.70;9.02;;;31.00;99.90;;;;;;5072056;28;20033;-62
2021/01/05 06:33:13;;;;;;;9.43;8.73;;;30.90;99.90;;;;;;5072687;28;20107;-62
2021/01/05 06:35:41;;;;;;;8.93;8.32;;;31.00;99.90;;;;;;5072919;28;20023;-62
2021/01/05 06:38:08;;;;;;;10.38;9.43;;;31.10;99.90;;;;;;5073159;28;20028;-63
2021/01/05 06:40:36;;;;;;;10.82;9.93;;;31.00;99.90;;;;;;5073079;28;20503;-62
2021/01/05 06:43:05;;;;;;;9.75;9.15;;;31.40;99.90;;;;;;5072812;28;20029;-63
2021/01/05 06:45:34;;;;;;;10.63;9.93;;;31.50;99.90;;;;;;5072824;28;20029;-62
2021/01/05 06:48:02;;;;;;;9.80;9.30;;;31.50;99.90;;;;;;5072960;28;20535;-63
2021/01/05 06:50:31;;;;;;;10.85;10.00;;;31.60;99.90;;;;;;5072764;28;20112;-63
2021/01/05 06:52:59;;;;;;;10.25;9.52;;;31.70;99.90;;;;;;5072689;28;20024;-62
2021/01/05 06:55:27;;;;;;;10.13;9.55;;;31.70;99.90;;;;;;5070919;28;20031;-65
2021/01/05 06:57:55;;;;;;;10.20;9.45;;;31.10;99.90;;;;;;5072718;28;20096;-64
2021/01/05 07:00:26;;;;;;;10.73;9.82;;;30.60;99.90;;;;;;5072550;28;20052;-64
2021/01/05 07:02:55;;;;;;;10.15;9.43;;;29.70;99.90;;;;;;5071316;28;20442;-64
2021/01/05 07:05:24;;;;;;;10.07;9.32;;;28.90;99.90;;;;;;5054182;28;20036;-64
2021/01/05 07:07:52;;;;;;;11.77;10.73;;;28.30;99.90;;;;;;5072713;28;20017;-65
2021/01/05 07:10:22;;;;;;;11.55;10.55;;;27.70;99.90;;;;;;5071356;28;20270;-65
2021/01/05 07:12:50;;;;;;;10.60;9.80;;;27.20;99.90;;;;;;5072509;28;20031;-65
2021/01/05 07:15:20;;;;;;;10.38;9.57;;;26.90;99.90;;;;;;5072723;28;20473;-65
2021/01/05 07:17:48;;;;;;;11.30;10.40;;;26.50;99.90;;;;;;5072490;28;20480;-64
2021/01/05 07:20:16;;;;;;;12.20;11.13;;;26.20;99.90;;;;;;5074341;28;20021;-66
2021/01/05 07:22:44;;;;;;;12.23;11.23;;;26.10;99.90;;;;;;5076387;28;20020;-65
2021/01/05 07:25:14;;;;;;;13.27;12.00;;;25.90;99.90;;;;;;5076181;28;20032;-66
2021/01/05 07:27:42;;;;;;;15.38;14.10;;;25.90;99.90;;;;;;5076283;28;20035;-67
2021/01/05 07:30:11;;;;;;;11.65;10.82;;;26.00;99.90;;;;;;5076032;28;20056;-66
2021/01/05 07:32:39;;;;;;;13.35;12.25;;;25.90;99.90;;;;;;5057434;28;20032;-66
2021/01/05 07:35:12;;;;;;;14.15;12.88;;;26.00;99.90;;;;;;5075878;28;20111;-66
2021/01/05 07:37:44;;;;;;;15.00;13.77;;;26.00;99.90;;;;;;5075959;28;20020;-67
2021/01/05 07:40:13;;;;;;;14.27;13.07;;;26.10;99.90;;;;;;5075920;28;20029;-67
2021/01/05 07:42:41;;;;;;;14.32;13.10;;;26.10;99.90;;;;;;5075920;28;20386;-66
2021/01/05 07:45:16;;;;;;;14.43;13.23;;;26.00;99.90;;;;;;5075936;28;20473;-67
2021/01/05 07:47:45;;;;;;;14.70;13.32;;;25.90;99.90;;;;;;5075927;28;20055;-67
2021/01/05 07:50:21;;;;;;;15.05;13.75;;;25.90;99.90;;;;;;5075906;28;20139;-67
2021/01/05 07:52:49;;;;;;;13.55;12.70;;;25.90;99.90;;;;;;5075783;28;20024;-66
2021/01/05 07:55:26;;;;;;;16.10;14.90;;;25.90;99.90;;;;;;5075750;28;20557;-66
2021/01/05 07:57:56;;;;;;;14.35;13.25;;;25.90;99.90;;;;;;5077484;28;20056;-67
2021/01/05 08:00:26;;;;;;;13.55;12.63;;;25.80;99.90;;;;;;5074861;28;20040;-67
2021/01/05 08:02:55;;;;;;;13.23;12.13;;;25.90;99.90;;;;;;5076289;28;20381;-67
2021/01/05 08:05:26;;;;;;;14.65;13.15;;;25.80;99.90;;;;;;5074714;28;20488;-67
2021/01/05 08:07:55;;;;;;;13.70;12.60;;;26.00;99.90;;;;;;5076505;28;20031;-67
2021/01/05 08:10:28;;;;;;;13.45;12.40;;;26.30;99.90;;;;;;5076128;28;20075;-67
2021/01/05 08:12:56;;;;;;;13.82;12.43;;;26.50;99.90;;;;;;5074786;28;20021;-67
2021/01/05 08:15:26;;;;;;;15.68;14.25;;;26.60;99.90;;;;;;5075796;28;20020;-66
2021/01/05 08:17:54;;;;;;;11.93;11.00;;;26.30;99.90;;;;;;5076439;28;20074;-65
2021/01/05 08:20:24;;;;;;;12.00;11.13;;;25.90;99.90;;;;;;5075185;28;20070;-66
2021/01/05 08:22:52;;;;;;;12.65;11.65;;;25.60;99.90;;;;;;5075366;28;20020;-66
2021/01/05 08:25:21;;;;;;;12.48;11.48;;;25.20;99.90;;;;;;5075325;28;20048;-66
2021/01/05 08:27:50;;;;;;;13.70;12.50;;;25.00;99.90;;;;;;5075214;28;20025;-66
2021/01/05 08:30:23;;;;;;;15.60;14.23;;;24.80;99.90;;;;;;5074817;28;20521;-65
2021/01/05 08:32:52;;;;;;;11.93;10.93;;;24.80;99.90;;;;;;5075048;28;20020;-66
2021/01/05 08:35:24;;;;;;;11.02;10.05;;;24.70;99.90;;;;;;5075295;28;20027;-66
2021/01/05 08:37:52;;;;;;;14.55;11.23;;;24.50;99.90;;;;;;5075400;28;20036;-64
2021/01/05 08:40:27;;;;;;;12.60;11.60;;;24.40;99.90;;;;;;5075419;28;20112;-64
2021/01/05 08:43:00;;;;;;;14.43;13.15;;;24.30;99.90;;;;;;5075006;28;20016;-65
2021/01/05 08:45:28;;;;;;;14.65;13.45;;;24.20;99.90;;;;;;5074967;28;20536;-65
2021/01/05 08:47:56;;;;;;;14.65;13.55;;;24.20;99.90;;;;;;5074631;28;20016;-65
2021/01/05 08:50:32;;;;;;;14.27;13.05;;;24.10;99.90;;;;;;5075051;28;20151;-64
2021/01/05 08:53:08;;;;;;;14.63;13.48;;;24.00;99.90;;;;;;5074437;28;20389;-66
2021/01/05 08:55:37;;;;;;;14.88;13.45;;;23.90;99.90;;;;;;5075076;28;20525;-66
2021/01/05 08:58:06;;;;;;;14.63;13.43;;;23.80;99.90;;;;;;5074777;28;20017;-65
2021/01/05 09:00:34;;;;;;;15.13;13.70;;;23.80;99.90;;;;;;5074661;28;20049;-65
2021/01/05 09:03:01;;;;;;;15.75;14.32;;;23.80;99.90;;;;;;5074630;28;20056;-66
2021/01/05 09:05:29;;;;;;;14.68;13.35;;;23.70;99.90;;;;;;5074731;28;20103;-66
2021/01/05 09:07:57;;;;;;;16.35;14.82;;;23.70;99.90;;;;;;5075051;28;20032;-65
2021/01/05 09:10:26;;;;;;;14.65;13.65;;;23.60;99.90;;;;;;5074265;28;20021;-65
2021/01/05 09:12:55;;;;;;;14.50;13.30;;;23.60;99.90;;;;;;5074242;28;20027;-66
2021/01/05 09:15:24;;;;;;;13.75;12.73;;;23.60;99.90;;;;;;5072400;28;20041;-65
2021/01/05 09:17:52;;;;;;;15.98;14.63;;;23.50;99.90;;;;;;5073964;28;20031;-66
2021/01/05 09:20:23;;;;;;;15.82;14.23;;;23.50;99.90;;;;;;5055521;28;20040;-64
2021/01/05 09:22:55;;;;;;;14.55;13.18;;;23.40;99.90;;;;;;5074159;28;20108;-63
2021/01/05 09:25:23;;;;;;;16.30;15.07;;;23.40;99.90;;;;;;5074132;28;20020;-63
2021/01/05 09:27:54;;;;;;;16.10;14.80;;;23.50;99.90;;;;;;5073829;28;20029;-63
2021/01/05 09:30:23;;;;;;;15.25;14.05;;;23.50;99.90;;;;;;5074071;28;20020;-63
2021/01/05 09:32:50;;;;;;;16.48;14.95;;;23.50;99.90;;;;;;5073570;28;20035;-65
2021/01/05 09:35:19;;;;;;;15.93;14.10;;;23.50;99.90;;;;;;5073568;28;20496;-65
2021/01/05 09:37:49;;;;;;;14.80;13.43;;;23.50;99.90;;;;;;5073834;28;20028;-65
2021/01/05 09:40:18;;;;;;;14.80;13.55;;;23.40;99.90;;;;;;5073681;28;20098;-64
2021/01/05 09:42:46;;;;;;;14.48;13.25;;;23.40;99.90;;;;;;5073280;28;20437;-63
2021/01/05 09:45:15;;;;;;;13.40;12.00;;;23.30;99.90;;;;;;5073444;28;20029;-63
2021/01/05 09:47:43;;;;;;;15.02;13.88;;;23.20;99.90;;;;;;5073643;28;20445;-63
2021/01/05 09:50:11;;;;;;;14.57;13.15;;;23.20;99.90;;;;;;5073594;28;20484;-65
2021/01/05 09:52:39;;;;;;;15.35;13.93;;;23.20;99.90;;;;;;5073636;28;20020;-62
2021/01/05 09:55:09;;;;;;;10.43;8.25;;;23.20;99.90;;;;;;5073316;28;20029;-61
2021/01/05 09:57:36;;;;;;;12.60;6.90;;;23.10;99.90;;;;;;5073401;28;20538;-61
2021/01/05 10:00:08;;;;;;;11.38;7.68;;;23.10;99.90;;;;;;5073402;28;20052;-60
2021/01/05 10:02:36;;;;;;;13.45;7.22;;;23.00;99.90;;;;;;5073545;28;20434;-60
2021/01/05 10:05:04;;;;;;;15.57;9.27;;;23.00;99.90;;;;;;5073632;28;20058;-61
2021/01/05 10:07:32;;;;;;;13.65;9.07;;;22.90;99.90;;;;;;5073386;28;20423;-61
2021/01/05 10:10:00;;;;;;;14.20;8.07;;;22.90;99.90;;;;;;5071417;28;20070;-61
2021/01/05 10:12:28;;;;;;;18.13;9.77;;;22.80;99.90;;;;;;5073422;28;20393;-61
2021/01/05 10:14:56;;;;;;;16.00;9.68;;;22.80;99.90;;;;;;5071357;28;20032;-61
2021/01/05 10:17:25;;;;;;;13.82;9.25;;;22.70;99.90;;;;;;5073381;28;20027;-61
2021/01/05 10:19:52;;;;;;;13.63;9.05;;;22.80;99.90;;;;;;5073380;28;20419;-62
2021/01/05 10:22:20;;;;;;;13.48;10.82;;;22.80;99.90;;;;;;5073301;28;20381;-61
2021/01/05 10:24:49;;;;;;;15.38;10.10;;;22.80;99.90;;;;;;5073042;28;20024;-61
2021/01/05 10:27:16;;;;;;;11.73;8.98;;;22.70;99.90;;;;;;5073004;28;20114;-61
2021/01/05 10:29:44;;;;;;;12.68;9.70;;;22.70;99.90;;;;;;5073244;28;20097;-61
2021/01/05 10:32:11;;;;;;;17.63;10.02;;;22.70;99.90;;;;;;5072914;28;20024;-61
2021/01/05 10:34:39;;;;;;;22.63;18.05;;;22.70;99.90;;;;;;5054587;28;20374;-61
2021/01/05 10:37:07;;;;;;;15.20;13.60;;;22.70;99.90;;;;;;5072913;28;20021;-61
2021/01/05 10:39:37;;;;;;;15.95;11.13;;;22.60;99.90;;;;;;5072891;28;20025;-61
2021/01/05 10:42:05;;;;;;;;;;;22.60;99.90;;;;;;5072384;28;20032;-60
2021/01/05 10:44:33;;;;;;;55.80;52.40;;;22.50;99.90;;;;;;5072869;28;19950;-61
2021/01/05 10:47:02;;;;;;;18.67;11.73;;;22.50;99.90;;;;;;5072795;28;20056;-60
2021/01/05 10:49:30;;;;;;;14.50;11.63;;;22.50;99.90;;;;;;5072842;28;20036;-60
2021/01/05 10:52:00;;;;;;;19.73;11.85;;;22.40;99.90;;;;;;5073122;28;20039;-60
2021/01/05 10:54:29;;;;;;;16.92;11.98;;;22.40;99.90;;;;;;5073568;28;20381;-60
2021/01/05 10:57:06;;;;;;;17.17;13.52;;;22.50;99.90;;;;;;5076630;28;20033;-60
2021/01/05 10:59:34;;;;;;;16.15;13.35;;;22.40;99.90;;;;;;5076600;28;20169;-61
2021/01/05 11:02:03;;;;;;;22.63;15.95;;;22.40;99.90;;;;;;5076801;28;20017;-61
2021/01/05 11:04:32;;;;;;;18.50;13.93;;;22.50;99.90;;;;;;5076566;28;20028;-61
2021/01/05 11:07:02;;;;;;;22.73;13.30;;;22.40;99.90;;;;;;5076485;28;20032;-60
2021/01/05 11:09:31;;;;;;;16.98;11.57;;;22.40;99.90;;;;;;5076413;28;20055;-61
2021/01/05 11:12:00;;;;;;;17.83;12.52;;;22.40;99.90;;;;;;5076764;28;20539;-61
2021/01/05 11:14:28;;;;;;;17.43;11.37;;;22.40;99.90;;;;;;5076278;28;20025;-60
2021/01/05 11:16:57;;;;;;;15.65;12.88;;;22.30;99.90;;;;;;5074746;28;20039;-60
2021/01/05 11:19:25;;;;;;;16.33;12.18;;;22.30;99.90;;;;;;5076407;28;20111;-60
2021/01/05 11:21:57;;;;;;;13.55;10.88;;;22.30;99.90;;;;;;5076652;28;20027;-60
2021/01/05 11:24:26;;;;;;;15.10;11.20;;;22.20;99.90;;;;;;5076507;28;20032;-60
2021/01/05 11:26:55;;;;;;;17.00;11.60;;;22.20;99.90;;;;;;5076517;28;20020;-60
2021/01/05 11:29:24;;;;;;;12.90;10.13;;;22.30;99.90;;;;;;5076468;28;20086;-61
2021/01/05 11:32:07;;;;;;;14.23;9.32;;;22.30;99.90;;;;;;5076105;28;20078;-61
2021/01/05 11:34:36;;;;;;;15.30;9.20;;;22.30;99.90;;;;;;5076069;28;20063;-59
2021/01/05 11:37:14;;;;;;;11.18;7.63;;;22.20;99.90;;;;;;5076033;28;20032;-61
2021/01/05 11:39:46;;;;;;;13.32;7.97;;;22.20;99.90;;;;;;5076078;28;20021;-61
2021/01/05 11:42:16;;;;;;;11.88;6.53;;;22.20;99.90;;;;;;5076412;28;20039;-61
2021/01/05 11:44:45;;;;;;;;;;;22.20;99.90;;;;;;5076651;28;20381;-60
2021/01/05 11:47:14;;;;;;;11.63;6.72;;;22.10;99.90;;;;;;5076159;28;20360;-60
2021/01/05 11:49:42;;;;;;;10.75;6.88;;;22.10;99.90;;;;;;5076031;28;20021;-60
2021/01/05 11:52:09;;;;;;;10.27;6.30;;;22.10;99.90;;;;;;5075840;28;20035;-60
2021/01/05 11:54:37;;;;;;;10.95;6.32;;;22.10;99.90;;;;;;5075689;28;20028;-60
2021/01/05 11:57:05;;;;;;;11.02;6.55;;;22.00;99.90;;;;;;5075945;28;20025;-59
2021/01/05 11:59:33;;;;;;;12.05;7.07;;;22.00;99.90;;;;;;5075499;28;20162;-60
2021/01/05 12:02:01;;;;;;;15.27;7.25;;;22.00;99.90;;;;;;5075506;28;20086;-60
2021/01/05 12:04:29;;;;;;;11.77;6.93;;;22.00;99.90;;;;;;5075882;28;20029;-60
2021/01/05 12:06:58;;;;;;;14.98;7.28;;;22.00;99.90;;;;;;5075147;28;20212;-60
2021/01/05 12:09:28;;;;;;;14.82;6.95;;;21.90;99.90;;;;;;5075991;28;20031;-60
2021/01/05 12:12:01;;;;;;;16.33;7.37;;;21.90;99.90;;;;;;5075779;28;20055;-60
2021/01/05 12:14:29;;;;;;;17.45;7.95;;;21.90;99.90;;;;;;5075439;28;20278;-60
2021/01/05 12:17:02;;;;;;;20.55;7.40;;;21.90;99.90;;;;;;5075681;28;20108;-60
2021/01/05 12:19:32;;;;;;;21.95;8.23;;;21.90;99.90;;;;;;5075616;28;20354;-60
2021/01/05 12:22:03;;;;;;;21.55;8.68;;;21.90;99.90;;;;;;5073493;28;20032;-60
2021/01/05 12:24:32;;;;;;;15.98;8.35;;;21.90;99.90;;;;;;5075143;28;20036;-60
2021/01/05 12:27:02;;;;;;;20.83;8.77;;;21.80;99.90;;;;;;5075407;28;20048;-60
2021/01/05 12:29:34;;;;;;;17.52;8.13;;;21.90;99.90;;;;;;5075747;28;20029;-60
2021/01/05 12:32:16;;;;;;;21.15;7.47;;;21.80;99.90;;;;;;5075295;28;20079;-60
2021/01/05 12:34:47;;;;;;;16.80;6.70;;;21.80;99.90;;;;;;5075128;28;20050;-60
2021/01/05 12:37:19;;;;;;;14.10;5.47;;;21.60;99.90;;;;;;5075213;28;20025;-60
2021/01/05 12:39:48;;;;;;;13.38;3.85;;;21.40;99.90;;;;;;5075201;28;20021;-60
2021/01/05 12:42:25;;;;;;;17.45;6.13;;;21.20;99.90;;;;;;5073003;28;20029;-59
2021/01/05 12:44:55;;;;;;;13.85;4.22;;;21.00;99.90;;;;;;5074785;28;20034;-59
2021/01/05 12:47:25;;;;;;;16.10;6.53;;;20.90;99.90;;;;;;5074941;28;20481;-60
2021/01/05 12:49:56;;;;;;;15.35;3.97;;;20.80;99.90;;;;;;5074595;28;20129;-60
2021/01/05 12:52:24;;;;;;;11.48;2.92;;;20.80;99.90;;;;;;5074495;28;20059;-60
2021/01/05 12:54:52;;;;;;;14.18;3.38;;;20.80;99.90;;;;;;5074432;28;20064;-60
2021/01/05 12:57:21;;;;;;;14.80;4.25;;;20.70;99.90;;;;;;5074500;28;20017;-60
2021/01/05 12:59:49;;;;;;;11.25;3.45;;;20.60;99.90;;;;;;5074236;28;20505;-60
2021/01/05 13:02:21;;;;;;;15.90;3.45;;;20.60;99.90;;;;;;5074728;28;20436;-60
2021/01/05 13:04:49;;;;;;;11.75;3.17;;;20.60;99.90;;;;;;5074420;28;20369;-60